createdAt,value
2022-11-07T00:00:53.271Z,8.70
2022-11-07T00:03:23.301Z,8.68
2022-11-07T00:05:55.032Z,8.88
2022-11-07T00:08:31.907Z,8.91
2022-11-07T00:11:07.331Z,8.99
2022-11-07T00:13:37.832Z,9.03
2022-11-07T00:16:11.806Z,9.04
2022-11-07T00:18:41.950Z,9.00
2022-11-07T00:21:13.584Z,8.93
2022-11-07T00:23:44.741Z,8.83
2022-11-07T00:26:18.677Z,8.72
2022-11-07T00:28:49.413Z,8.59
2022-11-07T00:31:20.993Z,8.46
2022-11-07T00:33:51.054Z,8.39
2022-11-07T00:36:23.662Z,8.31
2022-11-07T00:38:54.047Z,8.41
2022-11-07T00:41:27.069Z,8.31
2022-11-07T00:43:57.356Z,8.17
2022-11-07T00:46:27.684Z,8.17
2022-11-07T00:48:57.759Z,8.22
2022-11-07T00:51:31.098Z,8.26
2022-11-07T00:54:01.195Z,8.35
2022-11-07T00:56:33.942Z,8.44
2022-11-07T00:59:03.983Z,8.54
2022-11-07T01:01:36.607Z,8.66
2022-11-07T01:04:19.479Z,8.76
2022-11-07T01:06:50.177Z,8.81
2022-11-07T01:09:23.066Z,8.89
2022-11-07T01:11:55.746Z,8.85
2022-11-07T01:14:25.866Z,8.80
2022-11-07T01:16:55.985Z,8.78
2022-11-07T01:19:26.132Z,8.52
2022-11-07T01:21:56.530Z,8.29
2022-11-07T01:24:26.580Z,8.17
2022-11-07T01:26:59.193Z,8.20
2022-11-07T01:29:29.685Z,8.10
2022-11-07T01:31:59.750Z,8.29
2022-11-07T01:34:29.842Z,8.21
2022-11-07T01:36:59.838Z,8.12
2022-11-07T01:39:29.884Z,8.20
2022-11-07T01:42:02.557Z,8.22
2022-11-07T01:44:57.381Z,8.15
2022-11-07T01:47:32.934Z,7.99
2022-11-07T01:50:04.718Z,7.93
2022-11-07T01:52:38.991Z,7.82
2022-11-07T01:55:15.756Z,7.93
2022-11-07T01:57:54.054Z,7.78
2022-11-07T02:00:26.688Z,7.69
2022-11-07T02:03:03.974Z,7.72
2022-11-07T02:05:40.546Z,7.77
2022-11-07T02:08:13.392Z,7.73
2022-11-07T02:10:45.179Z,7.76
2022-11-07T02:13:28.411Z,7.78
2022-11-07T02:15:59.399Z,7.94
2022-11-07T02:18:32.278Z,8.15
2022-11-07T02:21:11.387Z,8.31
2022-11-07T02:23:52.000Z,8.35
2022-11-07T02:26:26.516Z,8.52
2022-11-07T02:29:00.148Z,8.63
2022-11-07T02:31:30.233Z,8.68
2022-11-07T02:34:00.214Z,8.79
2022-11-07T02:36:30.641Z,8.89
2022-11-07T02:39:02.679Z,9.01
2022-11-07T02:41:37.988Z,9.10
2022-11-07T02:44:13.961Z,9.22
2022-11-07T02:46:44.470Z,9.33
2022-11-07T02:49:14.566Z,9.46
2022-11-07T02:51:44.581Z,9.59
2022-11-07T02:54:14.705Z,9.68
2022-11-07T02:56:47.353Z,9.76
2022-11-07T02:59:17.327Z,9.77
2022-11-07T03:01:47.501Z,9.93
2022-11-07T03:04:17.621Z,10.04
2022-11-07T03:06:47.715Z,10.10
2022-11-07T03:09:18.007Z,10.15
2022-11-07T03:11:50.633Z,10.23
2022-11-07T03:14:20.755Z,10.30
2022-11-07T03:16:50.819Z,10.31
2022-11-07T03:19:20.891Z,10.35
2022-11-07T03:21:52.954Z,10.34
2022-11-07T03:24:23.014Z,10.32
2022-11-07T03:26:55.648Z,10.36
2022-11-07T03:29:25.724Z,10.35
2022-11-07T03:31:55.899Z,10.29
2022-11-07T03:34:26.497Z,10.12
2022-11-07T03:36:56.523Z,10.00
2022-11-07T03:39:26.513Z,9.94
2022-11-07T03:41:59.239Z,9.78
2022-11-07T03:44:29.275Z,9.60
2022-11-07T03:46:59.220Z,9.64
2022-11-07T03:49:29.370Z,9.70
2022-11-07T03:52:00.011Z,9.73
2022-11-07T03:54:30.016Z,9.82
2022-11-07T03:57:02.709Z,9.94
2022-11-07T03:59:32.736Z,9.91
2022-11-07T04:02:02.976Z,9.87
2022-11-07T04:04:33.095Z,9.88
2022-11-07T04:07:03.073Z,9.81
2022-11-07T04:09:33.055Z,9.81
2022-11-07T04:12:18.126Z,9.79
2022-11-07T04:15:00.969Z,9.80
2022-11-07T04:17:33.082Z,9.75
2022-11-07T04:20:03.144Z,9.66
2022-11-07T04:22:33.239Z,9.44
2022-11-07T04:25:03.305Z,9.35
2022-11-07T04:27:46.950Z,9.34
2022-11-07T04:30:23.855Z,9.12
2022-11-07T04:32:56.247Z,8.92
2022-11-07T04:35:29.217Z,8.89
2022-11-07T04:37:59.447Z,8.87
2022-11-07T04:40:30.382Z,8.98
2022-11-07T04:43:08.874Z,8.89
2022-11-07T04:45:39.472Z,8.99
2022-11-07T04:48:12.756Z,9.02
2022-11-07T04:50:43.806Z,9.07
2022-11-07T04:53:16.612Z,9.15
2022-11-07T04:55:47.470Z,9.21
2022-11-07T04:58:20.087Z,9.13
2022-11-07T05:00:50.102Z,9.13
2022-11-07T05:03:20.301Z,9.14
2022-11-07T05:05:50.424Z,9.09
2022-11-07T05:08:20.457Z,8.94
2022-11-07T05:10:50.457Z,8.90
2022-11-07T05:13:23.276Z,8.89
2022-11-07T05:15:53.799Z,8.93
2022-11-07T05:18:25.161Z,8.89
2022-11-07T05:20:55.169Z,8.72
2022-11-07T05:23:27.880Z,8.62
2022-11-07T05:25:58.377Z,8.57
2022-11-07T05:28:39.261Z,8.58
2022-11-07T05:31:11.899Z,8.67
2022-11-07T05:33:41.894Z,8.62
2022-11-07T05:36:14.327Z,8.48
2022-11-07T05:38:46.480Z,8.40
2022-11-07T05:41:19.560Z,8.33
2022-11-07T05:43:52.367Z,8.20
2022-11-07T05:46:22.382Z,8.11
2022-11-07T05:48:59.614Z,8.13
2022-11-07T05:51:30.836Z,8.23
2022-11-07T05:54:00.908Z,8.26
2022-11-07T05:56:31.212Z,8.34
2022-11-07T05:59:04.275Z,8.40
2022-11-07T06:01:34.589Z,8.40
2022-11-07T06:04:06.665Z,8.43
2022-11-07T06:06:36.853Z,8.56
2022-11-07T06:09:07.214Z,8.59
2022-11-07T06:11:37.217Z,8.62
2022-11-07T06:14:10.109Z,8.80
2022-11-07T06:16:40.363Z,8.93
2022-11-07T06:19:10.412Z,8.99
2022-11-07T06:21:40.749Z,9.01
2022-11-07T06:24:15.385Z,9.08
2022-11-07T06:26:45.582Z,9.07
2022-11-07T06:29:18.167Z,9.00
2022-11-07T06:31:48.310Z,9.03
2022-11-07T06:34:18.294Z,8.92
2022-11-07T06:36:58.643Z,8.88
2022-11-07T06:39:31.765Z,8.80
2022-11-07T06:42:01.805Z,8.78
2022-11-07T06:44:34.433Z,8.78
2022-11-07T06:47:04.489Z,8.74
2022-11-07T06:49:34.509Z,8.85
2022-11-07T06:52:05.204Z,8.86
2022-11-07T06:54:35.352Z,9.05
2022-11-07T06:57:05.454Z,9.20
2022-11-07T06:59:38.292Z,9.31
2022-11-07T07:02:08.609Z,9.40
2022-11-07T07:04:39.211Z,9.42
2022-11-07T07:07:09.308Z,9.31
2022-11-07T07:09:39.336Z,9.56
2022-11-07T07:12:10.228Z,9.75
2022-11-07T07:14:42.932Z,9.90
2022-11-07T07:17:13.080Z,9.95
2022-11-07T07:19:43.144Z,10.22
2022-11-07T07:22:15.658Z,10.42
2022-11-07T07:24:46.046Z,10.60
2022-11-07T07:27:16.173Z,10.72
2022-11-07T07:29:48.918Z,10.86
2022-11-07T07:32:19.040Z,10.96
2022-11-07T07:34:49.133Z,11.13
2022-11-07T07:37:19.179Z,11.23
2022-11-07T07:39:49.283Z,11.37
2022-11-07T07:42:19.337Z,11.51
2022-11-07T07:44:51.990Z,11.70
2022-11-07T07:47:22.274Z,11.90
2022-11-07T07:49:52.311Z,11.92
2022-11-07T07:52:23.027Z,12.08
2022-11-07T07:54:54.361Z,12.24
2022-11-07T07:57:24.567Z,12.44
2022-11-07T07:59:57.256Z,12.62
2022-11-07T08:02:27.340Z,12.78
2022-11-07T08:04:57.869Z,13.04
2022-11-07T08:07:28.219Z,13.22
2022-11-07T08:10:02.031Z,13.37
2022-11-07T08:12:32.458Z,13.56
2022-11-07T08:15:05.183Z,13.68
2022-11-07T08:17:37.368Z,13.76
2022-11-07T08:20:11.006Z,13.84
2022-11-07T08:22:41.897Z,13.97
2022-11-07T08:25:14.492Z,13.96
2022-11-07T08:27:44.559Z,14.07
2022-11-07T08:30:18.235Z,14.22
2022-11-07T08:32:48.488Z,14.34
2022-11-07T08:35:18.908Z,14.42
2022-11-07T08:37:48.961Z,14.43
2022-11-07T08:40:19.115Z,14.34
2022-11-07T08:42:49.251Z,14.30
2022-11-07T08:45:22.011Z,14.25
2022-11-07T08:47:52.014Z,14.18
2022-11-07T08:50:22.167Z,14.14
2022-11-07T08:52:52.452Z,14.14
2022-11-07T08:55:22.479Z,14.22
2022-11-07T08:57:52.603Z,14.28
2022-11-07T09:00:25.617Z,14.38
2022-11-07T09:05:45.900Z,14.86
2022-11-07T09:08:15.982Z,15.00
2022-11-07T09:10:46.251Z,15.05
2022-11-07T09:13:17.041Z,15.19
2022-11-07T09:15:51.747Z,15.31
2022-11-07T09:18:22.622Z,15.41
2022-11-07T09:20:52.980Z,15.64
2022-11-07T09:23:23.698Z,15.93
2022-11-07T09:25:53.727Z,16.03
2022-11-07T09:28:23.860Z,15.94
2022-11-07T09:31:00.833Z,16.06
2022-11-07T09:33:31.332Z,16.24
2022-11-07T09:36:02.912Z,16.37
2022-11-07T09:38:33.909Z,16.49
2022-11-07T09:41:13.267Z,16.55
2022-11-07T09:44:16.900Z,16.46
2022-11-07T09:47:00.460Z,16.46
2022-11-07T09:49:39.200Z,16.10
2022-11-07T09:52:19.927Z,15.77
2022-11-07T09:54:56.781Z,15.64
2022-11-07T09:57:36.582Z,15.77
2022-11-07T10:00:11.433Z,15.78
2022-11-07T10:02:48.133Z,15.82
2022-11-07T10:05:21.648Z,15.91
2022-11-07T10:08:06.312Z,16.06
2022-11-07T10:10:47.047Z,15.81
2022-11-07T10:13:56.122Z,15.97
2022-11-07T10:16:43.420Z,15.97
2022-11-07T10:19:36.797Z,16.08
2022-11-07T10:22:26.732Z,16.09
2022-11-07T10:25:24.239Z,16.28
2022-11-07T10:28:11.375Z,16.56
2022-11-07T10:30:42.145Z,16.62
2022-11-07T10:33:30.567Z,16.54
2022-11-07T10:36:14.150Z,16.52
2022-11-07T10:38:46.124Z,16.97
2022-11-07T10:41:20.058Z,17.35
2022-11-07T10:43:55.343Z,17.49
2022-11-07T10:46:36.619Z,17.73
2022-11-07T10:49:19.919Z,17.75
2022-11-07T10:51:53.698Z,17.28
2022-11-07T10:54:29.981Z,17.63
2022-11-07T10:57:07.072Z,17.52
2022-11-07T10:59:40.035Z,17.34
2022-11-07T11:02:24.344Z,17.18
2022-11-07T11:04:58.233Z,17.08
2022-11-07T11:07:41.265Z,17.09
2022-11-07T11:10:22.947Z,16.77
2022-11-07T11:12:53.821Z,16.62
2022-11-07T11:15:32.736Z,16.51
2022-11-07T11:18:08.537Z,16.61
2022-11-07T11:20:42.829Z,16.51
2022-11-07T11:23:24.822Z,16.71
2022-11-07T11:26:02.173Z,16.72
2022-11-07T11:28:38.508Z,16.72
2022-11-07T11:31:15.615Z,16.85
2022-11-07T11:33:51.198Z,17.06
2022-11-07T11:36:26.622Z,17.14
2022-11-07T11:38:59.799Z,17.11
2022-11-07T11:41:44.345Z,16.91
2022-11-07T11:44:23.474Z,17.26
2022-11-07T11:47:04.973Z,17.13
2022-11-07T11:49:42.553Z,17.54
2022-11-07T11:52:20.414Z,18.26
2022-11-07T11:54:55.441Z,17.38
2022-11-07T11:57:32.942Z,17.47
2022-11-07T12:00:15.121Z,17.28
2022-11-07T12:03:22.799Z,16.64
2022-11-07T12:06:16.943Z,17.36
2022-11-07T12:09:19.687Z,17.18
2022-11-07T12:12:21.892Z,16.88
2022-11-07T12:15:24.659Z,16.83
2022-11-07T12:18:05.546Z,17.17
2022-11-07T12:20:48.266Z,17.62
2022-11-07T12:23:34.557Z,17.81
2022-11-07T12:26:08.892Z,18.08
2022-11-07T12:28:55.683Z,18.23
2022-11-07T12:31:52.611Z,17.88
2022-11-07T12:34:38.159Z,18.20
2022-11-07T12:37:31.246Z,18.16
2022-11-07T12:40:25.352Z,18.42
2022-11-07T12:43:12.585Z,18.80
2022-11-07T12:45:56.461Z,18.80
2022-11-07T12:49:02.967Z,17.84
2022-11-07T12:51:49.781Z,18.09
2022-11-07T12:54:48.407Z,17.78
2022-11-07T12:57:25.268Z,17.47
2022-11-07T13:00:05.328Z,16.81
2022-11-07T13:03:21.438Z,16.83
2022-11-07T13:06:05.981Z,16.62
2022-11-07T13:08:44.013Z,16.57
2022-11-07T13:11:23.791Z,16.90
2022-11-07T13:14:11.412Z,16.80
2022-11-07T13:16:54.991Z,16.17
2022-11-07T13:19:33.609Z,16.04
2022-11-07T13:22:08.017Z,15.86
2022-11-07T13:24:52.799Z,15.80
2022-11-07T13:27:26.840Z,15.97
2022-11-07T13:29:56.906Z,15.62
2022-11-07T13:32:27.433Z,15.64
2022-11-07T13:35:03.690Z,15.92
2022-11-07T13:46:50.323Z,16.23
2022-11-07T13:49:28.106Z,16.19
2022-11-07T13:52:10.276Z,16.36
2022-11-07T13:54:50.795Z,16.18
2022-11-07T13:57:28.670Z,16.08
2022-11-07T14:00:05.226Z,16.20
2022-11-07T14:02:52.261Z,16.63
2022-11-07T14:05:27.179Z,16.66
2022-11-07T14:08:06.913Z,16.81
2022-11-07T14:10:46.430Z,17.03
2022-11-07T14:13:24.339Z,17.20
2022-11-07T14:15:58.171Z,16.94
2022-11-07T14:18:31.705Z,17.05
2022-11-07T14:21:04.207Z,17.17
2022-11-07T14:23:36.845Z,17.20
2022-11-07T14:26:20.920Z,17.27
2022-11-07T14:28:51.859Z,17.15
2022-11-07T14:31:29.417Z,16.98
2022-11-07T14:34:03.700Z,17.01
2022-11-07T14:36:35.251Z,16.77
2022-11-07T14:39:15.383Z,16.74
2022-11-07T14:41:48.225Z,16.57
2022-11-07T14:44:28.525Z,16.51
2022-11-07T14:47:08.555Z,16.37
2022-11-07T14:49:44.509Z,16.18
2022-11-07T14:52:23.363Z,15.78
2022-11-07T14:55:05.878Z,15.66
2022-11-07T14:57:41.020Z,15.73
2022-11-07T15:00:18.279Z,15.67
2022-11-07T15:02:52.425Z,15.69
2022-11-07T15:05:29.267Z,15.59
2022-11-07T15:08:02.595Z,15.54
2022-11-07T15:10:41.284Z,15.51
2022-11-07T15:13:28.028Z,15.29
2022-11-07T15:16:06.729Z,15.23
2022-11-07T15:18:44.219Z,15.10
2022-11-07T15:21:29.856Z,14.91
2022-11-07T15:24:00.542Z,14.88
2022-11-07T15:26:37.224Z,14.61
2022-11-07T15:29:23.520Z,14.53
2022-11-07T15:31:53.699Z,14.47
2022-11-07T15:34:52.550Z,14.36
2022-11-07T15:37:23.485Z,14.15
2022-11-07T15:39:53.794Z,14.08
2022-11-07T15:42:26.432Z,14.12
2022-11-07T15:44:56.572Z,13.96
2022-11-07T15:47:26.608Z,13.76
2022-11-07T15:49:56.672Z,13.59
2022-11-07T15:52:26.696Z,13.43
2022-11-07T15:54:56.717Z,13.15
2022-11-07T15:57:29.454Z,12.93
2022-11-07T15:59:59.575Z,12.77
2022-11-07T16:02:30.153Z,12.60
2022-11-07T16:05:00.308Z,12.43
2022-11-07T16:07:30.327Z,12.21
2022-11-07T16:10:00.365Z,12.04
2022-11-07T16:12:32.935Z,11.85
2022-11-07T16:15:03.580Z,11.64
2022-11-07T16:17:34.625Z,11.50
2022-11-07T16:20:04.666Z,11.32
2022-11-07T16:22:34.783Z,11.19
2022-11-07T16:25:10.103Z,11.06
2022-11-07T16:27:52.581Z,10.89
2022-11-07T16:30:23.688Z,10.80
2022-11-07T16:32:53.761Z,10.68
2022-11-07T16:35:24.080Z,10.55
2022-11-07T16:37:54.209Z,10.47
2022-11-07T16:40:24.439Z,10.35
2022-11-07T16:42:57.061Z,10.23
2022-11-07T16:45:27.122Z,10.23
2022-11-07T16:47:57.139Z,10.14
2022-11-07T16:50:27.144Z,10.04
2022-11-07T16:52:57.279Z,9.93
2022-11-07T16:55:27.296Z,9.83
2022-11-07T16:58:00.619Z,9.73
2022-11-07T17:00:30.986Z,9.68
2022-11-07T17:03:01.120Z,9.63
2022-11-07T17:05:31.343Z,9.59
2022-11-07T17:08:03.835Z,9.53
2022-11-07T17:10:33.898Z,9.48
2022-11-07T17:13:06.624Z,9.46
2022-11-07T17:15:36.733Z,9.44
2022-11-07T17:18:08.417Z,9.34
2022-11-07T17:20:50.893Z,9.30
2022-11-07T17:23:25.476Z,9.29
2022-11-07T17:25:59.716Z,9.28
2022-11-07T17:28:32.618Z,9.25
2022-11-07T17:31:02.752Z,9.17
2022-11-07T17:33:32.862Z,9.16
2022-11-07T17:36:03.081Z,9.16
2022-11-07T17:38:33.134Z,9.17
2022-11-07T17:41:17.260Z,9.10
2022-11-07T17:43:51.670Z,9.10
2022-11-07T17:46:26.263Z,9.11
2022-11-07T17:48:57.577Z,9.05
2022-11-07T17:51:28.607Z,8.99
2022-11-07T17:54:00.957Z,9.00
2022-11-07T17:56:33.861Z,8.93
2022-11-07T17:59:09.983Z,8.98
2022-11-07T18:01:41.980Z,8.97
2022-11-07T18:04:14.713Z,8.98
2022-11-07T18:06:46.317Z,9.03
2022-11-07T18:09:18.369Z,9.06
2022-11-07T18:11:48.541Z,8.91
2022-11-07T18:14:21.122Z,8.99
2022-11-07T18:16:51.467Z,8.91
2022-11-07T18:19:21.502Z,8.94
2022-11-07T18:21:51.555Z,9.00
2022-11-07T18:24:22.246Z,8.99
2022-11-07T18:26:53.877Z,8.98
2022-11-07T18:29:26.702Z,8.94
2022-11-07T18:31:56.750Z,8.98
2022-11-07T18:34:26.823Z,8.93
2022-11-07T18:36:57.101Z,8.95
2022-11-07T18:39:27.200Z,8.81
2022-11-07T18:41:57.327Z,8.75
2022-11-07T18:44:30.130Z,8.76
2022-11-07T18:47:00.100Z,8.74
2022-11-07T18:49:30.205Z,8.58
2022-11-07T18:52:00.490Z,8.59
2022-11-07T18:54:30.649Z,8.52
2022-11-07T18:57:00.746Z,8.48
2022-11-07T18:59:34.330Z,8.33
2022-11-07T19:02:04.759Z,8.21
2022-11-07T19:04:34.888Z,8.15
2022-11-07T19:07:05.003Z,8.12
2022-11-07T19:09:37.035Z,8.05
2022-11-07T19:12:07.653Z,7.99
2022-11-07T19:14:40.374Z,7.91
2022-11-07T19:17:10.547Z,7.85
2022-11-07T19:19:40.822Z,7.74
2022-11-07T19:22:12.563Z,7.82
2022-11-07T19:24:42.808Z,7.86
2022-11-07T19:27:12.873Z,7.63
2022-11-07T19:29:45.535Z,7.59
2022-11-07T19:32:15.843Z,7.57
2022-11-07T19:34:45.878Z,7.56
2022-11-07T19:37:15.921Z,7.48
2022-11-07T19:39:46.072Z,7.47
2022-11-07T19:42:16.223Z,7.38
2022-11-07T19:44:54.048Z,7.34
2022-11-07T19:47:26.642Z,7.28
2022-11-07T19:49:56.729Z,7.25
2022-11-07T19:52:26.800Z,7.26
2022-11-07T19:54:56.851Z,7.29
2022-11-07T19:57:27.145Z,7.14
2022-11-07T19:59:59.789Z,7.10
2022-11-07T20:02:33.604Z,7.12
2022-11-07T20:05:04.940Z,7.14
2022-11-07T20:07:35.898Z,7.00
2022-11-07T20:10:06.258Z,7.05
2022-11-07T20:12:36.443Z,6.92
2022-11-07T20:15:11.200Z,6.87
2022-11-07T20:17:42.607Z,6.93
2022-11-07T20:20:14.789Z,6.89
2022-11-07T20:22:49.208Z,6.85
2022-11-07T20:25:19.410Z,6.85
2022-11-07T20:27:49.437Z,6.84
2022-11-07T20:30:22.326Z,6.83
2022-11-07T20:32:52.464Z,6.84
2022-11-07T20:35:22.610Z,6.83
2022-11-07T20:37:52.832Z,6.82
2022-11-07T20:40:29.015Z,6.77
2022-11-07T20:43:00.543Z,6.74
2022-11-07T20:45:33.197Z,6.72
2022-11-07T20:48:03.540Z,6.73
2022-11-07T20:50:35.531Z,6.65
2022-11-07T20:53:05.927Z,6.68
2022-11-07T20:55:42.659Z,6.67
2022-11-07T20:58:13.628Z,6.76
2022-11-07T21:00:47.203Z,6.72
2022-11-07T21:03:18.591Z,6.56
2022-11-07T21:05:48.943Z,6.54
2022-11-07T21:08:19.131Z,6.50
2022-11-07T21:10:52.653Z,6.44
2022-11-07T21:13:23.037Z,6.42
2022-11-07T21:15:55.805Z,6.34
2022-11-07T21:18:26.061Z,6.36
2022-11-07T21:20:56.825Z,6.38
2022-11-07T21:23:27.023Z,6.32
2022-11-07T21:25:58.533Z,6.27
2022-11-07T21:28:29.003Z,6.22
2022-11-07T21:31:07.651Z,6.23
2022-11-07T21:33:37.722Z,6.40
2022-11-07T21:36:13.311Z,6.32
2022-11-07T21:38:44.847Z,6.29
2022-11-07T21:41:16.216Z,6.30
2022-11-07T21:43:46.916Z,6.28
2022-11-07T21:46:23.368Z,6.16
2022-11-07T21:48:54.456Z,6.10
2022-11-07T21:51:26.537Z,6.01
2022-11-07T21:53:57.998Z,5.93
2022-11-07T21:56:31.201Z,5.87
2022-11-07T21:59:04.253Z,5.90
2022-11-07T22:01:38.968Z,5.87
2022-11-07T22:04:12.956Z,5.77
2022-11-07T22:06:46.368Z,5.79
2022-11-07T22:09:19.854Z,5.82
2022-11-07T22:11:50.088Z,5.87
2022-11-07T22:14:23.045Z,5.79
2022-11-07T22:16:58.613Z,5.73
2022-11-07T22:19:29.466Z,5.68
2022-11-07T22:21:59.552Z,5.66
2022-11-07T22:24:29.917Z,5.69
2022-11-07T22:27:01.261Z,5.68
2022-11-07T22:29:32.177Z,5.61
2022-11-07T22:32:05.160Z,5.66
2022-11-07T22:34:35.157Z,5.55
2022-11-07T22:37:05.211Z,5.47
2022-11-07T22:39:35.208Z,5.56
2022-11-07T22:42:08.756Z,5.57
2022-11-07T22:44:38.796Z,5.64
2022-11-07T22:47:11.469Z,5.69
2022-11-07T22:49:42.614Z,5.75
2022-11-07T22:52:12.687Z,5.76
2022-11-07T22:54:43.153Z,5.87
2022-11-07T22:57:17.701Z,5.76
2022-11-07T22:59:48.061Z,5.73
2022-11-07T23:02:20.802Z,5.69
2022-11-07T23:04:51.427Z,5.64
2022-11-07T23:07:21.455Z,5.62
2022-11-07T23:09:53.508Z,5.53
2022-11-07T23:12:25.455Z,5.43
2022-11-07T23:14:58.042Z,5.36
2022-11-07T23:17:30.878Z,5.41
2022-11-07T23:20:00.880Z,5.40
2022-11-07T23:22:32.454Z,5.38
2022-11-07T23:25:02.956Z,5.34
2022-11-07T23:27:33.145Z,5.37
2022-11-07T23:30:03.136Z,5.34
2022-11-07T23:32:35.752Z,5.38
2022-11-07T23:35:05.790Z,5.39
2022-11-07T23:37:35.855Z,5.31
2022-11-07T23:40:06.288Z,5.41
2022-11-07T23:42:36.335Z,5.35
2022-11-07T23:45:19.410Z,5.46
2022-11-07T23:48:04.493Z,5.38
2022-11-07T23:50:47.007Z,5.36
2022-11-07T23:53:29.281Z,5.28
2022-11-07T23:55:59.291Z,5.22
2022-11-07T23:58:53.862Z,5.17
